Time;durP1;ratioP1;P1;durP2;ratioP2;P2;SDS_P1;SDS_P2;PMS_P1;PMS_P2;Temp;Humidity;BMP_temperature;BMP_pressure;BME280_temperature;BME280_humidity;BME280_pressure;Samples;Min_cycle;Max_cycle;Signal;HPM_P1;HPM_P2
2022/07/05 00:01:18;;;;;;;1.00;1.00;;;;;;;;;;1868615;75;26221;-39
2022/07/05 00:03:45;;;;;;;1.10;1.10;;;;;;;;;;1872929;75;26740;-43
2022/07/05 00:06:13;;;;;;;1.10;1.10;;;;;;;;;;1869721;75;26311;-41
2022/07/05 00:08:40;;;;;;;0.98;0.98;;;;;;;;;;1882493;75;26383;-39
2022/07/05 00:11:07;;;;;;;1.15;1.15;;;;;;;;;;1868366;75;26711;-40
2022/07/05 00:13:35;;;;;;;1.00;1.00;;;;;;;;;;1863095;75;26282;-42
2022/07/05 00:16:02;;;;;;;1.02;1.00;;;;;;;;;;1853955;75;26322;-40
2022/07/05 00:18:30;;;;;;;1.00;1.00;;;;;;;;;;1857460;75;26326;-45
2022/07/05 00:20:57;;;;;;;0.80;0.80;;;;;;;;;;1873539;75;26362;-47
2022/07/05 00:23:24;;;;;;;1.07;1.07;;;;;;;;;;1879979;75;26209;-45
2022/07/05 00:25:52;;;;;;;1.00;1.00;;;;;;;;;;1886365;75;26258;-42
2022/07/05 00:28:19;;;;;;;1.10;1.10;;;;;;;;;;1866956;75;26322;-42
2022/07/05 00:30:47;;;;;;;1.60;1.00;;;;;;;;;;1856624;75;26265;-42
2022/07/05 00:33:14;;;;;;;1.00;1.00;;;;;;;;;;1873081;75;27218;-41
2022/07/05 00:35:41;;;;;;;1.10;1.00;;;;;;;;;;1860773;75;26541;-40
2022/07/05 00:38:09;;;;;;;0.90;0.90;;;;;;;;;;1884280;75;26260;-42
2022/07/05 00:40:36;;;;;;;1.10;1.10;;;;;;;;;;1882464;75;26768;-42
2022/07/05 00:43:03;;;;;;;1.10;1.00;;;;;;;;;;1870560;75;26222;-40
2022/07/05 00:45:31;;;;;;;1.00;1.00;;;;;;;;;;1876139;75;27435;-49
2022/07/05 00:47:58;;;;;;;1.10;1.10;;;;;;;;;;1876406;75;26257;-42
2022/07/05 00:50:25;;;;;;;1.00;1.00;;;;;;;;;;1887790;75;26300;-42
2022/07/05 00:52:54;;;;;;;0.80;0.80;;;;;;;;;;1892432;75;26278;-39
2022/07/05 00:55:21;;;;;;;1.37;1.10;;;;;;;;;;1871070;75;26319;-42
2022/07/05 00:57:49;;;;;;;0.90;0.90;;;;;;;;;;1869820;75;26269;-41
2022/07/05 01:00:17;;;;;;;0.95;0.80;;;;;;;;;;1873154;75;26242;-43
2022/07/05 01:02:44;;;;;;;0.75;0.75;;;;;;;;;;1862486;75;26250;-47
2022/07/05 01:05:11;;;;;;;0.70;0.70;;;;;;;;;;1871763;75;26268;-42
2022/07/05 01:07:38;;;;;;;0.90;0.90;;;;;;;;;;1860661;75;26273;-41
2022/07/05 01:10:06;;;;;;;0.70;0.70;;;;;;;;;;1862263;75;26247;-46
2022/07/05 01:12:33;;;;;;;0.80;0.80;;;;;;;;;;1860922;75;26235;-47
2022/07/05 01:15:01;;;;;;;0.80;0.80;;;;;;;;;;1863617;75;26787;-41
2022/07/05 01:17:28;;;;;;;0.80;0.80;;;;;;;;;;1867978;75;26327;-41
2022/07/05 01:19:55;;;;;;;0.70;0.70;;;;;;;;;;1871218;75;26217;-39
2022/07/05 01:22:24;;;;;;;0.70;0.70;;;;;;;;;;1869232;75;26720;-44
2022/07/05 01:24:51;;;;;;;0.78;0.78;;;;;;;;;;1892091;75;26847;-39
2022/07/05 01:27:20;;;;;;;0.82;0.70;;;;;;;;;;1867585;75;26359;-44
2022/07/05 01:29:47;;;;;;;0.72;0.70;;;;;;;;;;1871577;75;26273;-41
2022/07/05 01:32:14;;;;;;;0.80;0.80;;;;;;;;;;1867923;75;26740;-49
2022/07/05 01:34:42;;;;;;;0.95;0.70;;;;;;;;;;1873390;75;26282;-39
2022/07/05 01:37:10;;;;;;;0.70;0.70;;;;;;;;;;1857689;75;26641;-47
2022/07/05 01:39:38;;;;;;;0.60;0.60;;;;;;;;;;1872621;75;26319;-41
2022/07/05 01:42:06;;;;;;;1.95;0.68;;;;;;;;;;1868056;75;26810;-42
2022/07/05 01:44:34;;;;;;;0.70;0.70;;;;;;;;;;1865543;75;26307;-43
2022/07/05 01:47:03;;;;;;;0.93;0.88;;;;;;;;;;1864303;75;26262;-43
2022/07/05 01:49:32;;;;;;;0.50;0.50;;;;;;;;;;1869412;75;26862;-49
2022/07/05 01:52:01;;;;;;;0.60;0.60;;;;;;;;;;1879858;75;26270;-39
2022/07/05 01:54:29;;;;;;;0.60;0.60;;;;;;;;;;1873240;75;26260;-50
2022/07/05 01:56:56;;;;;;;0.70;0.70;;;;;;;;;;1874983;75;26293;-41
2022/07/05 01:59:23;;;;;;;0.53;0.53;;;;;;;;;;1875900;75;26280;-44
2022/07/05 02:01:51;;;;;;;0.60;0.60;;;;;;;;;;1863000;75;26335;-42
2022/07/05 02:04:18;;;;;;;0.70;0.70;;;;;;;;;;1870315;75;26658;-44
2022/07/05 02:06:46;;;;;;;0.60;0.60;;;;;;;;;;1880424;75;26380;-43
2022/07/05 02:09:13;;;;;;;0.57;0.57;;;;;;;;;;1871149;75;26761;-46
2022/07/05 02:11:40;;;;;;;0.50;0.50;;;;;;;;;;1886410;75;26736;-40
2022/07/05 02:14:08;;;;;;;1.65;0.60;;;;;;;;;;1870423;75;26233;-46
2022/07/05 02:16:35;;;;;;;0.50;0.50;;;;;;;;;;1872784;75;26314;-45
2022/07/05 02:19:02;;;;;;;0.60;0.60;;;;;;;;;;1880802;75;26254;-42
2022/07/05 02:21:30;;;;;;;0.75;0.55;;;;;;;;;;1871968;75;26335;-43
2022/07/05 02:23:57;;;;;;;0.95;0.60;;;;;;;;;;1885840;75;26644;-42
2022/07/05 02:26:24;;;;;;;0.70;0.70;;;;;;;;;;1881295;75;26254;-49
2022/07/05 02:28:51;;;;;;;0.60;0.60;;;;;;;;;;1885929;75;26285;-43
2022/07/05 02:31:20;;;;;;;0.50;0.50;;;;;;;;;;1890753;75;26296;-44
2022/07/05 02:33:47;;;;;;;0.85;0.68;;;;;;;;;;1877610;75;26712;-42
2022/07/05 02:36:14;;;;;;;1.25;0.60;;;;;;;;;;1864129;75;26339;-42
2022/07/05 02:38:42;;;;;;;0.60;0.60;;;;;;;;;;1855522;75;26277;-56
2022/07/05 02:41:10;;;;;;;0.70;0.70;;;;;;;;;;1879266;75;26677;-44
2022/07/05 02:43:38;;;;;;;0.70;0.65;;;;;;;;;;1862157;75;26245;-54
2022/07/05 02:46:06;;;;;;;1.40;0.60;;;;;;;;;;1873658;75;26296;-44
2022/07/05 02:48:34;;;;;;;0.68;0.68;;;;;;;;;;1864136;75;26739;-43
2022/07/05 02:51:01;;;;;;;0.50;0.50;;;;;;;;;;1854669;75;26296;-41
2022/07/05 02:53:29;;;;;;;0.60;0.60;;;;;;;;;;1868556;75;26277;-42
2022/07/05 02:55:56;;;;;;;0.75;0.60;;;;;;;;;;1887935;75;26679;-45
2022/07/05 02:58:23;;;;;;;0.75;0.75;;;;;;;;;;1877666;75;26771;-46
2022/07/05 03:00:50;;;;;;;0.62;0.57;;;;;;;;;;1868740;75;26704;-42
2022/07/05 03:03:18;;;;;;;0.80;0.60;;;;;;;;;;1868787;75;26274;-42
2022/07/05 03:05:45;;;;;;;1.02;0.55;;;;;;;;;;1874182;75;26799;-48
2022/07/05 03:08:12;;;;;;;0.55;0.55;;;;;;;;;;1874756;75;26261;-42
2022/07/05 03:10:40;;;;;;;0.50;0.50;;;;;;;;;;1849827;75;26305;-51
2022/07/05 03:13:07;;;;;;;0.53;0.53;;;;;;;;;;1870809;75;26266;-46
2022/07/05 03:15:34;;;;;;;0.75;0.68;;;;;;;;;;1871703;75;26332;-42
2022/07/05 03:18:02;;;;;;;0.82;0.65;;;;;;;;;;1868990;75;26254;-43
2022/07/05 03:20:29;;;;;;;0.60;0.60;;;;;;;;;;1867602;75;26720;-43
2022/07/05 03:22:56;;;;;;;0.70;0.70;;;;;;;;;;1863357;75;26619;-43
2022/07/05 03:25:23;;;;;;;0.62;0.60;;;;;;;;;;1879540;75;26279;-41
2022/07/05 03:27:51;;;;;;;0.62;0.62;;;;;;;;;;1892145;75;26247;-41
2022/07/05 03:30:18;;;;;;;0.95;0.65;;;;;;;;;;1864012;75;26275;-41
2022/07/05 03:32:45;;;;;;;0.90;0.90;;;;;;;;;;1861166;75;26953;-44
2022/07/05 03:35:13;;;;;;;0.60;0.60;;;;;;;;;;1863903;75;26741;-40
2022/07/05 03:37:40;;;;;;;0.60;0.60;;;;;;;;;;1871804;75;26888;-46
2022/07/05 03:40:07;;;;;;;0.70;0.70;;;;;;;;;;1871432;75;26768;-41
2022/07/05 03:42:35;;;;;;;0.62;0.60;;;;;;;;;;1873929;75;26262;-45
2022/07/05 03:45:03;;;;;;;1.02;0.60;;;;;;;;;;1870279;75;26277;-42
2022/07/05 03:47:30;;;;;;;0.70;0.70;;;;;;;;;;1853744;75;26894;-44
2022/07/05 03:49:58;;;;;;;1.02;0.70;;;;;;;;;;1872872;75;26313;-47
2022/07/05 03:52:25;;;;;;;0.60;0.60;;;;;;;;;;1871151;75;26150;-46
2022/07/05 03:54:52;;;;;;;0.60;0.60;;;;;;;;;;1878593;75;26265;-44
2022/07/05 03:57:20;;;;;;;0.60;0.60;;;;;;;;;;1869555;75;27335;-43
2022/07/05 03:59:47;;;;;;;0.65;0.50;;;;;;;;;;1878460;75;26319;-44
2022/07/05 04:02:14;;;;;;;0.57;0.53;;;;;;;;;;1871788;75;26366;-41
2022/07/05 04:04:42;;;;;;;0.62;0.60;;;;;;;;;;1865275;75;26744;-46
2022/07/05 04:07:09;;;;;;;0.70;0.70;;;;;;;;;;1883559;75;26724;-41
2022/07/05 04:09:37;;;;;;;1.27;0.70;;;;;;;;;;1875738;75;26263;-42
2022/07/05 04:12:04;;;;;;;0.57;0.57;;;;;;;;;;1874081;75;26818;-45
2022/07/05 04:14:32;;;;;;;1.70;0.53;;;;;;;;;;1867237;75;26281;-44
2022/07/05 04:16:59;;;;;;;0.60;0.60;;;;;;;;;;1881962;75;26868;-51
2022/07/05 04:19:27;;;;;;;0.60;0.60;;;;;;;;;;1882586;75;26245;-44
2022/07/05 04:21:54;;;;;;;0.70;0.70;;;;;;;;;;1881872;75;26256;-43
2022/07/05 04:24:21;;;;;;;4.03;0.80;;;;;;;;;;1882343;75;26261;-43
2022/07/05 04:26:49;;;;;;;1.65;0.62;;;;;;;;;;1889803;75;26578;-46
2022/07/05 04:29:16;;;;;;;0.50;0.50;;;;;;;;;;1871545;75;26290;-49
2022/07/05 04:31:43;;;;;;;0.50;0.50;;;;;;;;;;1874184;75;26261;-45
2022/07/05 04:34:10;;;;;;;1.57;0.60;;;;;;;;;;1887183;75;26325;-41
2022/07/05 04:36:40;;;;;;;1.35;0.68;;;;;;;;;;1867621;75;26289;-41
2022/07/05 04:39:08;;;;;;;1.60;0.60;;;;;;;;;;1868355;75;26379;-42
2022/07/05 04:41:35;;;;;;;1.55;0.70;;;;;;;;;;1876745;75;26281;-42
2022/07/05 04:44:04;;;;;;;2.00;0.70;;;;;;;;;;1864378;75;26695;-47
2022/07/05 04:46:31;;;;;;;0.50;0.50;;;;;;;;;;1871765;75;26784;-44
2022/07/05 04:48:58;;;;;;;0.47;0.47;;;;;;;;;;1881398;75;26729;-41
2022/07/05 04:51:25;;;;;;;0.85;0.78;;;;;;;;;;1869324;75;26269;-47
2022/07/05 04:53:53;;;;;;;0.50;0.50;;;;;;;;;;1869277;75;26327;-45
2022/07/05 04:56:20;;;;;;;0.68;0.65;;;;;;;;;;1881286;75;26205;-50
2022/07/05 04:58:47;;;;;;;1.30;0.72;;;;;;;;;;1875069;75;26315;-51
2022/07/05 05:01:15;;;;;;;0.53;0.53;;;;;;;;;;1880663;75;26228;-41
2022/07/05 05:03:42;;;;;;;0.62;0.62;;;;;;;;;;1875484;75;26634;-42
2022/07/05 05:06:09;;;;;;;0.65;0.65;;;;;;;;;;1881615;75;26289;-41
2022/07/05 05:08:36;;;;;;;0.70;0.70;;;;;;;;;;1869672;75;26300;-41
2022/07/05 05:11:05;;;;;;;0.80;0.80;;;;;;;;;;1877632;75;26284;-42
2022/07/05 05:13:32;;;;;;;1.10;0.80;;;;;;;;;;1883710;74;26277;-41
2022/07/05 05:15:59;;;;;;;1.85;0.70;;;;;;;;;;1875716;74;26319;-43
2022/07/05 05:18:27;;;;;;;0.90;0.90;;;;;;;;;;1880908;74;26310;-48
2022/07/05 05:20:55;;;;;;;0.93;0.80;;;;;;;;;;1895747;74;26707;-43
2022/07/05 05:23:22;;;;;;;1.40;1.10;;;;;;;;;;1894987;74;26413;-51
2022/07/05 05:25:50;;;;;;;1.82;0.80;;;;;;;;;;1879389;74;26940;-44
2022/07/05 05:28:17;;;;;;;1.00;1.00;;;;;;;;;;1867794;74;26335;-41
2022/07/05 05:30:44;;;;;;;2.20;0.90;;;;;;;;;;1905017;74;26310;-50
2022/07/05 05:33:12;;;;;;;1.47;0.90;;;;;;;;;;1881713;74;26290;-46
2022/07/05 05:35:39;;;;;;;2.37;1.02;;;;;;;;;;1887064;74;26782;-41
2022/07/05 05:38:06;;;;;;;2.50;0.90;;;;;;;;;;1904184;74;26270;-43
2022/07/05 05:40:34;;;;;;;0.88;0.80;;;;;;;;;;1887574;74;26261;-42
2022/07/05 05:43:01;;;;;;;0.98;0.82;;;;;;;;;;1901329;74;26719;-54
2022/07/05 05:45:29;;;;;;;0.70;0.70;;;;;;;;;;1897746;74;26149;-44
2022/07/05 05:47:57;;;;;;;0.85;0.70;;;;;;;;;;1889124;74;26349;-50
2022/07/05 05:50:26;;;;;;;0.70;0.70;;;;;;;;;;1895252;74;26331;-48
2022/07/05 05:52:53;;;;;;;2.47;0.90;;;;;;;;;;1877976;74;26253;-45
2022/07/05 05:55:21;;;;;;;1.40;0.70;;;;;;;;;;1874370;74;26195;-48
2022/07/05 05:57:49;;;;;;;0.93;0.75;;;;;;;;;;1863374;74;26268;-41
2022/07/05 06:00:17;;;;;;;1.02;0.93;;;;;;;;;;1884809;74;26701;-40
2022/07/05 06:02:45;;;;;;;1.07;0.70;;;;;;;;;;1884437;74;26302;-46
2022/07/05 06:05:13;;;;;;;1.25;0.80;;;;;;;;;;1874272;74;26344;-43
2022/07/05 06:07:45;;;;;;;1.67;0.72;;;;;;;;;;1882235;75;26268;-48
2022/07/05 06:10:13;;;;;;;1.57;0.80;;;;;;;;;;1881674;74;26265;-40
2022/07/05 06:12:41;;;;;;;0.70;0.70;;;;;;;;;;1868791;75;26709;-46
2022/07/05 06:15:08;;;;;;;1.15;0.70;;;;;;;;;;1877451;75;26188;-40
2022/07/05 06:17:36;;;;;;;0.80;0.62;;;;;;;;;;1869330;75;26198;-48
2022/07/05 06:20:05;;;;;;;0.75;0.75;;;;;;;;;;1869449;75;26261;-39
2022/07/05 06:22:32;;;;;;;0.82;0.80;;;;;;;;;;1868631;75;27608;-42
2022/07/05 06:24:59;;;;;;;0.80;0.80;;;;;;;;;;1866367;75;26744;-41
2022/07/05 06:27:27;;;;;;;1.32;0.90;;;;;;;;;;1872619;75;26308;-48
2022/07/05 06:29:54;;;;;;;0.82;0.70;;;;;;;;;;1875859;75;26261;-46
2022/07/05 06:32:21;;;;;;;2.27;0.60;;;;;;;;;;1859882;75;26339;-41
2022/07/05 06:34:49;;;;;;;1.77;0.65;;;;;;;;;;1875045;75;26811;-43
2022/07/05 06:37:16;;;;;;;0.80;0.80;;;;;;;;;;1872657;75;26654;-51
2022/07/05 06:39:43;;;;;;;1.72;0.53;;;;;;;;;;1882433;75;26801;-39
2022/07/05 06:42:11;;;;;;;0.98;0.80;;;;;;;;;;1877244;75;26253;-48
2022/07/05 06:44:38;;;;;;;0.85;0.65;;;;;;;;;;1878415;75;26143;-39
2022/07/05 06:47:05;;;;;;;0.60;0.60;;;;;;;;;;1870397;75;26265;-45
2022/07/05 06:49:32;;;;;;;0.90;0.60;;;;;;;;;;1879066;75;26303;-41
2022/07/05 06:52:00;;;;;;;0.93;0.70;;;;;;;;;;1873601;75;26304;-49
2022/07/05 06:54:27;;;;;;;1.32;0.80;;;;;;;;;;1868204;75;26198;-49
2022/07/05 06:56:56;;;;;;;0.70;0.70;;;;;;;;;;1873208;75;26321;-42
2022/07/05 06:59:23;;;;;;;0.50;0.50;;;;;;;;;;1860814;75;26268;-44
2022/07/05 07:01:50;;;;;;;0.78;0.60;;;;;;;;;;1861176;75;26254;-39
2022/07/05 07:04:17;;;;;;;0.72;0.60;;;;;;;;;;1859807;75;26335;-40
2022/07/05 07:06:45;;;;;;;1.05;0.80;;;;;;;;;;1876640;75;26246;-44
2022/07/05 07:09:18;;;;;;;0.55;0.55;;;;;;;;;;1874794;75;26339;-46
2022/07/05 07:11:46;;;;;;;0.82;0.70;;;;;;;;;;1856958;75;27489;-43
2022/07/05 07:14:13;;;;;;;0.70;0.70;;;;;;;;;;1831645;76;26892;-42
2022/07/05 07:16:40;;;;;;;0.62;0.62;;;;;;;;;;1830672;76;26264;-49
2022/07/05 07:19:08;;;;;;;1.12;0.40;;;;;;;;;;1835575;76;26367;-41
2022/07/05 07:21:35;;;;;;;0.93;0.68;;;;;;;;;;1836412;76;26352;-42
2022/07/05 07:29:29;;;;;;;0.95;0.70;;;;;;;;;;1856569;75;26329;-43
2022/07/05 07:31:56;;;;;;;0.85;0.70;;;;;;;;;;1864238;76;26752;-43
2022/07/05 07:34:24;;;;;;;0.30;0.30;;;;;;;;;;1853531;75;26403;-48
2022/07/05 07:36:51;;;;;;;0.60;0.60;;;;;;;;;;1853111;76;26237;-39
2022/07/05 07:39:19;;;;;;;0.50;0.50;;;;;;;;;;1873934;75;26246;-44
2022/07/05 07:41:47;;;;;;;0.65;0.53;;;;;;;;;;1849560;75;26740;-43
2022/07/05 07:44:14;;;;;;;0.50;0.50;;;;;;;;;;1856245;75;26258;-39
2022/07/05 07:46:41;;;;;;;0.60;0.60;;;;;;;;;;1861227;76;26304;-43
2022/07/05 07:49:09;;;;;;;0.70;0.70;;;;;;;;;;1856077;76;26764;-43
2022/07/05 07:51:36;;;;;;;0.40;0.40;;;;;;;;;;1839150;76;26183;-42
2022/07/05 07:54:04;;;;;;;0.65;0.60;;;;;;;;;;1847540;76;26245;-41
2022/07/05 07:56:31;;;;;;;0.72;0.50;;;;;;;;;;1847009;77;26240;-43
2022/07/05 07:58:58;;;;;;;0.60;0.60;;;;;;;;;;1787030;79;26362;-47
2022/07/05 08:01:26;;;;;;;0.65;0.50;;;;;;;;;;1837023;76;26303;-42
2022/07/05 08:03:53;;;;;;;0.33;0.33;;;;;;;;;;1854409;76;26272;-44
2022/07/05 08:06:20;;;;;;;0.60;0.60;;;;;;;;;;1848670;76;26773;-43
2022/07/05 08:08:48;;;;;;;0.98;0.50;;;;;;;;;;1840029;77;26265;-43
2022/07/05 08:11:15;;;;;;;0.50;0.50;;;;;;;;;;1848361;77;26262;-40
2022/07/05 08:13:43;;;;;;;1.20;0.68;;;;;;;;;;1840463;76;26395;-39
2022/07/05 08:16:10;;;;;;;0.57;0.57;;;;;;;;;;1844706;76;26270;-41
2022/07/05 08:21:37;;;;;;;0.95;0.50;;;;;;;;;;1846465;76;26735;-50
2022/07/05 08:24:03;;;;;;;0.95;0.55;;;;;;;;;;1845664;76;26427;-50
2022/07/05 08:26:30;;;;;;;0.65;0.60;;;;;;;;;;1844365;76;26297;-42
2022/07/05 08:28:58;;;;;;;0.60;0.60;;;;;;;;;;1838816;77;26806;-40
2022/07/05 08:31:26;;;;;;;0.60;0.60;;;;;;;;;;1855297;76;26245;-44
2022/07/05 08:33:53;;;;;;;0.33;0.33;;;;;;;;;;1858397;76;26713;-50
2022/07/05 08:36:20;;;;;;;0.60;0.60;;;;;;;;;;1855201;76;26615;-43
2022/07/05 08:38:48;;;;;;;0.70;0.70;;;;;;;;;;1853073;76;26311;-41
2022/07/05 08:41:16;;;;;;;0.70;0.70;;;;;;;;;;1855062;76;26764;-43
2022/07/05 08:43:45;;;;;;;0.40;0.40;;;;;;;;;;1855399;76;26747;-50
2022/07/05 08:46:14;;;;;;;0.62;0.50;;;;;;;;;;1820487;77;26335;-43
2022/07/05 08:48:43;;;;;;;0.57;0.57;;;;;;;;;;1812061;77;26409;-40
2022/07/05 08:51:12;;;;;;;1.05;0.57;;;;;;;;;;1793337;78;26229;-40
2022/07/05 08:53:41;;;;;;;0.47;0.47;;;;;;;;;;1787237;79;26284;-44
2022/07/05 08:56:08;;;;;;;0.90;0.60;;;;;;;;;;1816537;77;26249;-40
2022/07/05 08:58:36;;;;;;;1.12;0.57;;;;;;;;;;1804411;77;26830;-42
2022/07/05 09:01:04;;;;;;;1.22;1.00;;;;;;;;;;1803676;78;26350;-56
2022/07/05 09:03:36;;;;;;;0.50;0.50;;;;;;;;;;1799986;79;26299;-45
2022/07/05 09:06:04;;;;;;;1.07;0.53;;;;;;;;;;1802665;79;26229;-43
2022/07/05 09:08:33;;;;;;;0.60;0.60;;;;;;;;;;1788130;79;27212;-41
2022/07/05 09:11:02;;;;;;;0.60;0.60;;;;;;;;;;1807921;78;26861;-42
2022/07/05 09:13:31;;;;;;;0.50;0.50;;;;;;;;;;1798513;78;26303;-44
2022/07/05 09:15:58;;;;;;;0.65;0.62;;;;;;;;;;1796418;79;26362;-42
2022/07/05 09:18:45;;;;;;;0.50;0.50;;;;;;;;;;1805660;79;26750;-42
2022/07/05 09:21:20;;;;;;;0.50;0.50;;;;;;;;;;1789885;79;26280;-40
2022/07/05 09:23:59;;;;;;;0.78;0.60;;;;;;;;;;1792097;79;26299;-41
2022/07/05 09:26:28;;;;;;;0.70;0.70;;;;;;;;;;1814576;77;26308;-41
2022/07/05 09:28:56;;;;;;;0.47;0.47;;;;;;;;;;1812363;77;26842;-40
2022/07/05 09:31:28;;;;;;;0.60;0.60;;;;;;;;;;1822315;77;26810;-48
2022/07/05 09:33:55;;;;;;;0.82;0.40;;;;;;;;;;1782233;80;26377;-42
2022/07/05 09:36:22;;;;;;;0.50;0.50;;;;;;;;;;1828422;77;26920;-46
2022/07/05 09:38:53;;;;;;;0.90;0.50;;;;;;;;;;1817361;77;26648;-41
2022/07/05 09:41:20;;;;;;;0.50;0.50;;;;;;;;;;1806562;79;26225;-40
2022/07/05 09:43:47;;;;;;;2.42;0.80;;;;;;;;;;1798537;79;26263;-43
2022/07/05 09:46:15;;;;;;;0.90;0.60;;;;;;;;;;1809730;77;26567;-40
2022/07/05 09:48:44;;;;;;;0.65;0.50;;;;;;;;;;1820114;77;26814;-47
2022/07/05 09:51:12;;;;;;;0.45;0.40;;;;;;;;;;1814957;77;26213;-39
2022/07/05 09:53:47;;;;;;;0.70;0.50;;;;;;;;;;1822202;77;26322;-40
2022/07/05 09:56:14;;;;;;;1.05;0.62;;;;;;;;;;1818935;77;26294;-47
2022/07/05 09:58:41;;;;;;;0.50;0.50;;;;;;;;;;1824780;77;26257;-40
2022/07/05 10:01:25;;;;;;;0.90;0.65;;;;;;;;;;1803600;77;26271;-40
2022/07/05 10:03:54;;;;;;;0.50;0.50;;;;;;;;;;1796062;77;26966;-45
2022/07/05 10:06:25;;;;;;;0.82;0.60;;;;;;;;;;1803775;79;26305;-42
2022/07/05 10:08:56;;;;;;;0.40;0.40;;;;;;;;;;1797965;79;26275;-45
2022/07/05 10:11:27;;;;;;;0.60;0.60;;;;;;;;;;1793044;79;26365;-41
2022/07/05 10:13:54;;;;;;;0.70;0.70;;;;;;;;;;1815593;77;26326;-42
2022/07/05 10:16:22;;;;;;;0.40;0.40;;;;;;;;;;1811466;77;26921;-43
2022/07/05 10:18:54;;;;;;;0.68;0.50;;;;;;;;;;1796837;79;26283;-47
2022/07/05 10:21:22;;;;;;;0.60;0.60;;;;;;;;;;1817247;77;26272;-39
2022/07/05 10:23:55;;;;;;;1.50;0.70;;;;;;;;;;1824924;77;26303;-42
2022/07/05 10:26:20;;;;;;;0.50;0.50;;;;;;;;;;1806245;77;26326;-44
2022/07/05 10:28:49;;;;;;;0.53;0.50;;;;;;;;;;1793615;79;26352;-43
2022/07/05 10:31:17;;;;;;;0.60;0.60;;;;;;;;;;1795231;79;26791;-44
2022/07/05 10:33:45;;;;;;;0.65;0.60;;;;;;;;;;1799181;79;26773;-40
2022/07/05 10:36:13;;;;;;;0.40;0.40;;;;;;;;;;1810520;78;26334;-39
2022/07/05 10:38:41;;;;;;;0.45;0.40;;;;;;;;;;1800102;78;26268;-43
2022/07/05 10:41:10;;;;;;;1.15;0.50;;;;;;;;;;1811306;79;26343;-40
2022/07/05 10:43:37;;;;;;;0.50;0.40;;;;;;;;;;1804945;79;26789;-42
2022/07/05 10:46:07;;;;;;;0.50;0.50;;;;;;;;;;1809808;78;26268;-46
2022/07/05 10:48:34;;;;;;;0.45;0.45;;;;;;;;;;1811343;79;26752;-40
2022/07/05 10:51:06;;;;;;;0.45;0.45;;;;;;;;;;1804290;79;26288;-47
2022/07/05 10:53:37;;;;;;;0.57;0.57;;;;;;;;;;1808791;79;26759;-40
2022/07/05 10:56:06;;;;;;;0.75;0.60;;;;;;;;;;1802122;78;26751;-40
2022/07/05 10:58:37;;;;;;;0.53;0.40;;;;;;;;;;1811752;79;26714;-50
2022/07/05 11:01:15;;;;;;;2.05;0.60;;;;;;;;;;1797804;78;26295;-44
2022/07/05 11:03:43;;;;;;;0.70;0.45;;;;;;;;;;1805344;78;26283;-40
2022/07/05 11:06:12;;;;;;;0.53;0.53;;;;;;;;;;1775734;79;26777;-43
2022/07/05 11:08:59;;;;;;;0.60;0.60;;;;;;;;;;1841597;76;26260;-42
2022/07/05 11:11:31;;;;;;;0.60;0.60;;;;;;;;;;1845838;76;26731;-44
2022/07/05 11:13:59;;;;;;;0.33;0.33;;;;;;;;;;1850029;76;26732;-44
2022/07/05 11:16:30;;;;;;;0.72;0.65;;;;;;;;;;1784604;79;26263;-42
2022/07/05 11:19:11;;;;;;;0.70;0.70;;;;;;;;;;1798296;78;26689;-39
2022/07/05 11:21:40;;;;;;;0.57;0.53;;;;;;;;;;1803123;78;27359;-44
2022/07/05 11:24:21;;;;;;;1.47;0.53;;;;;;;;;;1813393;79;26751;-42
2022/07/05 11:26:49;;;;;;;0.57;0.57;;;;;;;;;;1823928;77;26363;-51
2022/07/05 11:29:35;;;;;;;0.40;0.40;;;;;;;;;;1808828;77;26277;-41
2022/07/05 11:32:05;;;;;;;0.60;0.60;;;;;;;;;;1792184;78;26378;-41
2022/07/05 11:34:33;;;;;;;0.65;0.50;;;;;;;;;;1818646;77;26205;-48
2022/07/05 11:37:21;;;;;;;0.70;0.70;;;;;;;;;;1822179;78;26265;-43
2022/07/05 11:39:51;;;;;;;0.45;0.45;;;;;;;;;;1816816;77;26316;-41
2022/07/05 11:42:21;;;;;;;0.50;0.50;;;;;;;;;;1792395;79;26291;-44
2022/07/05 11:44:53;;;;;;;0.65;0.60;;;;;;;;;;1820449;77;26248;-42
2022/07/05 11:47:20;;;;;;;0.62;0.62;;;;;;;;;;1810767;78;26271;-41
2022/07/05 11:49:54;;;;;;;0.45;0.45;;;;;;;;;;1822668;77;26423;-41
2022/07/05 11:52:27;;;;;;;1.22;0.90;;;;;;;;;;1816469;77;26774;-40
2022/07/05 11:54:55;;;;;;;0.50;0.50;;;;;;;;;;1822257;78;26249;-40
2022/07/05 11:57:23;;;;;;;0.40;0.40;;;;;;;;;;1822029;77;26345;-48
2022/07/05 11:59:50;;;;;;;0.57;0.55;;;;;;;;;;1805045;79;26342;-47
2022/07/05 12:02:18;;;;;;;0.60;0.60;;;;;;;;;;1794459;78;26721;-43
2022/07/05 12:04:49;;;;;;;0.57;0.55;;;;;;;;;;1802909;79;26349;-43
2022/07/05 12:07:27;;;;;;;0.62;0.60;;;;;;;;;;1782359;79;26846;-39
2022/07/05 12:12:42;;;;;;;0.55;0.55;;;;;;;;;;1800033;78;26287;-47
2022/07/05 12:15:11;;;;;;;0.57;0.45;;;;;;;;;;1789288;78;26716;-44
2022/07/05 12:17:39;;;;;;;0.80;0.60;;;;;;;;;;1796209;78;26328;-45
2022/07/05 12:20:08;;;;;;;1.42;0.60;;;;;;;;;;1795808;79;26336;-40
2022/07/05 12:22:36;;;;;;;2.47;0.65;;;;;;;;;;1783628;79;26784;-44
2022/07/05 12:25:04;;;;;;;1.52;0.57;;;;;;;;;;1790079;78;26280;-42
2022/07/05 12:27:33;;;;;;;0.60;0.60;;;;;;;;;;1796513;79;26335;-47
2022/07/05 12:30:02;;;;;;;1.40;0.70;;;;;;;;;;1790249;79;26719;-43
2022/07/05 12:32:30;;;;;;;0.50;0.50;;;;;;;;;;1848297;76;26751;-45
2022/07/05 12:34:57;;;;;;;0.45;0.45;;;;;;;;;;1848082;76;27598;-45
2022/07/05 12:37:25;;;;;;;1.45;0.62;;;;;;;;;;1846642;76;26261;-41
2022/07/05 12:40:06;;;;;;;0.68;0.68;;;;;;;;;;1853707;76;26325;-43
2022/07/05 12:42:39;;;;;;;1.77;0.70;;;;;;;;;;1845777;76;26265;-42
2022/07/05 12:45:14;;;;;;;0.65;0.50;;;;;;;;;;1847601;76;26309;-40
2022/07/05 12:47:49;;;;;;;0.72;0.60;;;;;;;;;;1846995;76;26835;-42
2022/07/05 12:50:16;;;;;;;0.50;0.42;;;;;;;;;;1848831;76;26379;-42
2022/07/05 12:58:01;;;;;;;0.78;0.57;;;;;;;;;;1842514;76;26249;-42
2022/07/05 12:58:20;;;;;;;0.60;0.60;;;;;;;;;;1838864;76;26226;-40
2022/07/05 13:00:47;;;;;;;0.62;0.62;;;;;;;;;;1841205;77;26253;-43
2022/07/05 13:03:15;;;;;;;0.40;0.40;;;;;;;;;;1837846;76;26621;-45
2022/07/05 13:05:43;;;;;;;1.25;0.50;;;;;;;;;;1847467;77;26269;-45
2022/07/05 13:08:10;;;;;;;1.50;0.47;;;;;;;;;;1843598;76;26835;-40
2022/07/05 13:10:39;;;;;;;0.50;0.50;;;;;;;;;;1845995;76;26786;-44
2022/07/05 13:13:06;;;;;;;0.40;0.40;;;;;;;;;;1847626;76;26673;-42
2022/07/05 13:15:33;;;;;;;0.40;0.40;;;;;;;;;;1846990;76;26249;-44
2022/07/05 13:18:01;;;;;;;0.50;0.50;;;;;;;;;;1847282;76;26277;-40
2022/07/05 13:20:28;;;;;;;0.50;0.50;;;;;;;;;;1847844;77;26803;-46
2022/07/05 13:22:55;;;;;;;0.45;0.40;;;;;;;;;;1846545;77;26348;-45
2022/07/05 13:25:22;;;;;;;0.55;0.55;;;;;;;;;;1850382;76;26330;-41
2022/07/05 13:27:52;;;;;;;0.50;0.40;;;;;;;;;;1847988;76;26367;-44
2022/07/05 13:30:19;;;;;;;0.50;0.50;;;;;;;;;;1852897;76;26347;-44
2022/07/05 13:32:46;;;;;;;0.55;0.55;;;;;;;;;;1860780;75;26265;-41
2022/07/05 13:35:13;;;;;;;1.12;0.47;;;;;;;;;;1862491;76;26233;-42
2022/07/05 13:37:40;;;;;;;0.40;0.40;;;;;;;;;;1872232;75;26268;-40
2022/07/05 13:40:08;;;;;;;0.37;0.33;;;;;;;;;;1852537;76;26248;-47
2022/07/05 13:42:36;;;;;;;0.65;0.47;;;;;;;;;;1852066;77;26711;-46
2022/07/05 13:45:03;;;;;;;0.40;0.40;;;;;;;;;;1840687;77;26822;-45
2022/07/05 13:47:30;;;;;;;1.35;0.60;;;;;;;;;;1858490;75;26210;-45
2022/07/05 13:52:43;;;;;;;0.50;0.50;;;;;;;;;;1854753;75;26362;-41
2022/07/05 13:55:10;;;;;;;1.10;0.60;;;;;;;;;;1858701;76;26322;-40
2022/07/05 13:57:37;;;;;;;0.42;0.42;;;;;;;;;;1814391;77;26359;-41
2022/07/05 14:00:05;;;;;;;1.15;0.60;;;;;;;;;;1814958;77;26282;-42
2022/07/05 14:02:33;;;;;;;0.60;0.60;;;;;;;;;;1801221;77;26342;-46
2022/07/05 14:05:00;;;;;;;0.50;0.50;;;;;;;;;;1827661;78;26252;-40
2022/07/05 14:07:27;;;;;;;0.60;0.60;;;;;;;;;;1833863;77;26253;-44
2022/07/05 14:09:54;;;;;;;0.50;0.50;;;;;;;;;;1824064;77;26239;-40
2022/07/05 14:12:22;;;;;;;0.55;0.50;;;;;;;;;;1827358;77;26374;-40
2022/07/05 14:14:49;;;;;;;0.82;0.78;;;;;;;;;;1818900;77;26304;-41
2022/07/05 14:17:16;;;;;;;1.35;0.60;;;;;;;;;;1797049;78;26261;-39
2022/07/05 14:19:43;;;;;;;0.50;0.50;;;;;;;;;;1798311;79;26271;-39
2022/07/05 14:22:11;;;;;;;0.40;0.40;;;;;;;;;;1796981;79;26317;-46
2022/07/05 14:24:38;;;;;;;0.90;0.60;;;;;;;;;;1799430;79;26337;-46
2022/07/05 14:27:08;;;;;;;0.50;0.50;;;;;;;;;;1813826;77;26283;-39
2022/07/05 14:29:36;;;;;;;0.50;0.50;;;;;;;;;;1805236;78;26723;-42
2022/07/05 14:32:03;;;;;;;0.50;0.50;;;;;;;;;;1808890;78;26307;-43
2022/07/05 14:34:30;;;;;;;1.70;0.70;;;;;;;;;;1809113;78;26253;-47
2022/07/05 14:36:59;;;;;;;0.55;0.47;;;;;;;;;;1814879;77;26254;-47
2022/07/05 14:39:26;;;;;;;1.27;0.60;;;;;;;;;;1853124;76;26278;-42
2022/07/05 14:41:54;;;;;;;2.62;0.72;;;;;;;;;;1845327;76;26320;-46
2022/07/05 14:44:22;;;;;;;0.50;0.50;;;;;;;;;;1835900;77;26358;-39
2022/07/05 14:46:49;;;;;;;0.93;0.50;;;;;;;;;;1833618;76;27529;-50
2022/07/05 14:49:16;;;;;;;0.50;0.50;;;;;;;;;;1841126;76;26733;-43
2022/07/05 14:51:43;;;;;;;0.95;0.50;;;;;;;;;;1848365;77;26718;-42
2022/07/05 14:54:11;;;;;;;0.50;0.50;;;;;;;;;;1845481;77;26269;-42
2022/07/05 14:56:38;;;;;;;1.20;0.45;;;;;;;;;;1848233;77;26238;-47
2022/07/05 14:59:05;;;;;;;0.50;0.50;;;;;;;;;;1849723;76;26551;-40
2022/07/05 15:01:32;;;;;;;1.45;0.50;;;;;;;;;;1842153;77;26316;-42
2022/07/05 15:04:00;;;;;;;0.40;0.40;;;;;;;;;;1844012;76;26254;-40
2022/07/05 15:06:27;;;;;;;0.50;0.50;;;;;;;;;;1838078;77;26261;-44